createdAt,value
2022-12-14T00:05:01.252Z,61.06
2022-12-14T00:10:02.947Z,60.08
2022-12-14T00:15:05.260Z,60.66
2022-12-14T00:20:07.038Z,60.52
2022-12-14T00:25:09.795Z,59.84
2022-12-14T00:30:12.991Z,60.10
2022-12-14T00:35:17.359Z,59.66
2022-12-14T00:40:18.862Z,59.88
2022-12-14T00:45:20.359Z,59.84
2022-12-14T00:50:21.745Z,59.38
2022-12-14T00:55:23.152Z,59.25
2022-12-14T01:00:24.652Z,59.44
2022-12-14T01:05:26.184Z,59.30
2022-12-14T01:10:30.288Z,59.42
2022-12-14T01:15:31.690Z,59.17
2022-12-14T01:20:33.116Z,59.54
2022-12-14T01:25:34.684Z,59.06
2022-12-14T01:30:39.325Z,58.78
2022-12-14T01:35:40.633Z,58.97
2022-12-14T01:40:41.966Z,58.67
2022-12-14T01:45:43.559Z,58.10
2022-12-14T01:50:47.323Z,58.68
2022-12-14T01:55:54.908Z,58.29
2022-12-14T02:00:59.505Z,58.68
2022-12-14T02:06:09.236Z,58.52
2022-12-14T02:11:10.877Z,58.78
2022-12-14T02:16:12.326Z,59.05
2022-12-14T02:21:22.948Z,58.63
2022-12-14T02:26:54.907Z,58.79
2022-12-14T02:32:32.199Z,58.37
2022-12-14T02:37:48.998Z,58.71
2022-12-14T02:43:11.049Z,59.11
2022-12-14T02:48:24.151Z,59.12
2022-12-14T02:53:38.781Z,59.02
2022-12-14T02:58:43.834Z,58.96
2022-12-14T03:03:45.665Z,58.69
2022-12-14T03:08:47.392Z,58.41
2022-12-14T03:13:58.632Z,58.17
2022-12-14T03:19:08.009Z,58.86
2022-12-14T03:24:12.723Z,59.36
2022-12-14T03:29:29.243Z,59.23
2022-12-14T03:34:43.604Z,59.00
2022-12-14T03:39:46.783Z,58.51
2022-12-14T03:44:55.896Z,58.54
2022-12-14T03:50:02.481Z,59.21
2022-12-14T03:55:20.410Z,58.30
2022-12-14T04:00:24.413Z,58.30
2022-12-14T04:05:34.361Z,59.04
2022-12-14T04:11:00.527Z,59.29
2022-12-14T04:16:42.058Z,59.88
2022-12-14T04:21:58.624Z,59.56
2022-12-14T04:27:11.650Z,58.86
2022-12-14T04:32:22.083Z,59.04
2022-12-14T04:37:27.614Z,59.03
2022-12-14T04:42:34.113Z,58.05
2022-12-14T04:47:43.742Z,58.19
2022-12-14T04:52:50.812Z,58.67
2022-12-14T04:57:59.021Z,59.20
2022-12-14T05:03:08.994Z,58.79
2022-12-14T05:08:17.773Z,58.94
2022-12-14T05:13:40.760Z,58.89
2022-12-14T05:18:44.132Z,58.41
2022-12-14T05:23:45.623Z,58.42
2022-12-14T05:28:50.407Z,58.57
2022-12-14T05:33:51.996Z,58.50
2022-12-14T05:38:53.374Z,58.42
2022-12-14T05:43:54.743Z,58.53
2022-12-14T05:48:56.156Z,59.13
2022-12-14T05:53:58.971Z,58.91
2022-12-14T05:59:00.504Z,59.05
2022-12-14T06:04:02.001Z,58.03
2022-12-14T06:09:07.141Z,58.44
2022-12-14T06:14:09.076Z,58.21
2022-12-14T06:19:11.209Z,57.92
2022-12-14T06:24:13.670Z,58.78
2022-12-14T06:29:18.835Z,58.66
2022-12-14T06:34:24.800Z,58.03
2022-12-14T06:39:29.647Z,58.37
2022-12-14T06:44:31.216Z,58.68
2022-12-14T06:49:32.790Z,58.43
2022-12-14T06:54:34.152Z,58.58
2022-12-14T06:59:35.579Z,58.11
2022-12-14T07:04:36.925Z,57.46
2022-12-14T07:09:38.444Z,57.12
2022-12-14T07:14:39.962Z,57.32
2022-12-14T07:19:43.580Z,56.96
2022-12-14T07:24:45.050Z,57.02
2022-12-14T07:29:48.623Z,57.48
2022-12-14T07:34:50.051Z,57.14
2022-12-14T07:39:51.411Z,56.91
2022-12-14T07:44:53.015Z,57.17
2022-12-14T07:49:54.468Z,56.90
2022-12-14T07:54:55.839Z,56.83
2022-12-14T07:59:57.787Z,57.07
2022-12-14T08:04:59.162Z,57.89
2022-12-14T08:10:00.632Z,58.48
2022-12-14T08:15:02.008Z,58.68
2022-12-14T08:20:04.153Z,58.82
2022-12-14T08:25:05.932Z,59.45
2022-12-14T08:30:08.220Z,60.92
2022-12-14T08:35:09.726Z,62.38
2022-12-14T08:40:11.445Z,63.54
2022-12-14T08:45:12.956Z,64.00
2022-12-14T08:50:14.491Z,64.74
2022-12-14T08:55:21.160Z,65.40
2022-12-14T09:00:26.945Z,66.30
2022-12-14T09:05:28.336Z,67.68
2022-12-14T09:10:29.766Z,66.71
2022-12-14T09:15:31.126Z,66.90
2022-12-14T09:20:32.591Z,67.82
2022-12-14T09:25:33.939Z,67.21
2022-12-14T09:30:35.446Z,67.56
2022-12-14T09:35:36.881Z,67.77
2022-12-14T09:40:42.756Z,67.19
2022-12-14T09:45:54.644Z,66.96
2022-12-14T09:50:56.245Z,67.55
2022-12-14T09:55:58.776Z,67.17
2022-12-14T10:01:19.091Z,68.24
2022-12-14T10:06:29.039Z,68.12
2022-12-14T10:11:44.868Z,68.34
2022-12-14T10:17:14.318Z,68.30
2022-12-14T10:22:20.198Z,68.06
2022-12-14T10:27:24.318Z,67.69
2022-12-14T10:32:34.809Z,67.13
2022-12-14T10:37:39.726Z,66.88
2022-12-14T10:42:52.292Z,66.55
2022-12-14T10:48:11.372Z,67.07
2022-12-14T10:53:17.453Z,67.37
2022-12-14T10:58:18.892Z,67.61
2022-12-14T11:03:20.607Z,67.46
2022-12-14T11:08:48.180Z,67.21
2022-12-14T11:14:10.091Z,67.13
2022-12-14T11:19:23.239Z,66.93
2022-12-14T11:24:27.498Z,67.20
2022-12-14T11:29:33.288Z,67.35
2022-12-14T11:34:41.450Z,67.51
2022-12-14T11:39:43.108Z,67.63
2022-12-14T11:44:46.350Z,67.97
2022-12-14T11:49:54.354Z,68.00
2022-12-14T11:54:55.716Z,68.36
2022-12-14T12:00:21.602Z,69.06
2022-12-14T12:05:24.042Z,68.82
2022-12-14T12:10:40.275Z,68.54
2022-12-14T12:15:50.017Z,68.04
2022-12-14T12:21:15.945Z,67.93
2022-12-14T12:26:30.642Z,68.32
2022-12-14T12:31:42.025Z,67.45
2022-12-14T12:37:03.054Z,66.36
2022-12-14T12:42:45.008Z,65.80
2022-12-14T12:47:53.268Z,66.35
2022-12-14T12:53:04.305Z,66.75
2022-12-14T12:58:09.952Z,66.83
2022-12-14T13:03:37.584Z,66.62
2022-12-14T13:08:41.645Z,66.10
2022-12-14T13:13:48.589Z,65.40
2022-12-14T13:19:40.547Z,65.88
2022-12-14T13:24:20.448Z,65.81
2022-12-14T13:29:30.935Z,66.08
2022-12-14T13:34:44.091Z,65.83
2022-12-14T13:40:23.227Z,64.66
2022-12-14T13:45:31.242Z,63.58
2022-12-14T13:50:39.678Z,63.11
2022-12-14T13:55:51.881Z,63.72
2022-12-14T14:00:59.372Z,63.33
2022-12-14T14:06:23.072Z,62.84
2022-12-14T14:11:42.466Z,63.22
2022-12-14T14:16:50.497Z,63.11
2022-12-14T14:22:26.461Z,62.99
2022-12-14T14:27:50.423Z,62.12
2022-12-14T14:32:54.310Z,62.59
2022-12-14T14:38:01.726Z,62.78
2022-12-14T14:43:17.204Z,63.55
2022-12-14T14:48:34.624Z,63.75
2022-12-14T14:53:38.650Z,64.54
2022-12-14T14:58:42.137Z,64.38
2022-12-14T15:03:52.769Z,64.50
2022-12-14T15:09:09.709Z,64.96
2022-12-14T15:14:35.376Z,65.38
2022-12-14T15:19:38.696Z,65.52
2022-12-14T15:24:43.167Z,65.63
2022-12-14T15:29:49.438Z,65.66
2022-12-14T15:34:56.956Z,65.80
2022-12-14T15:40:07.078Z,65.74
2022-12-14T15:45:15.029Z,65.33
2022-12-14T15:50:30.253Z,65.43
2022-12-14T15:55:41.008Z,66.78
2022-12-14T16:00:49.277Z,65.01
2022-12-14T16:05:51.111Z,64.98
2022-12-14T16:10:55.557Z,65.34
2022-12-14T16:15:58.495Z,65.86
2022-12-14T16:21:03.289Z,65.38
2022-12-14T16:26:37.498Z,65.72
2022-12-14T16:31:39.155Z,65.54
2022-12-14T16:36:41.008Z,65.41
2022-12-14T16:42:00.761Z,64.73
2022-12-14T16:47:05.109Z,64.80
2022-12-14T16:52:09.488Z,64.27
2022-12-14T16:57:23.939Z,65.19
2022-12-14T17:02:30.655Z,65.16
2022-12-14T17:07:33.464Z,65.07
2022-12-14T17:12:34.848Z,65.26
2022-12-14T17:17:36.535Z,65.30
2022-12-14T17:22:38.090Z,64.61
2022-12-14T17:27:40.810Z,63.98
2022-12-14T17:32:42.784Z,65.01
2022-12-14T17:37:44.256Z,65.66
2022-12-14T17:42:51.861Z,65.65
2022-12-14T17:47:54.449Z,66.76
2022-12-14T17:52:55.813Z,65.52
2022-12-14T17:57:58.194Z,64.33
2022-12-14T18:03:00.069Z,64.03
2022-12-14T18:08:01.664Z,64.46
2022-12-14T18:13:04.028Z,64.29
2022-12-14T18:18:06.055Z,64.50
2022-12-14T18:23:13.892Z,64.72
2022-12-14T18:28:15.729Z,64.74
2022-12-14T18:33:20.240Z,64.89
2022-12-14T18:38:22.016Z,64.88
2022-12-14T18:43:26.196Z,64.62
2022-12-14T18:48:27.803Z,65.12
2022-12-14T18:53:29.710Z,64.84
2022-12-14T18:58:31.399Z,64.84
2022-12-14T19:03:33.410Z,64.29
2022-12-14T19:08:35.134Z,65.47
2022-12-14T19:13:36.736Z,65.37
2022-12-14T19:18:38.423Z,65.91
2022-12-14T19:23:39.812Z,64.82
2022-12-14T19:28:41.192Z,64.86
2022-12-14T19:33:42.581Z,64.81
2022-12-14T19:38:44.800Z,65.05
2022-12-14T19:43:50.526Z,65.64
2022-12-14T19:48:52.232Z,64.63
2022-12-14T19:53:55.031Z,65.31
2022-12-14T19:59:00.773Z,65.89
2022-12-14T20:04:02.406Z,65.19
2022-12-14T20:09:05.773Z,65.78
2022-12-14T20:14:07.168Z,66.31
2022-12-14T20:19:10.806Z,66.35
2022-12-14T20:24:13.210Z,67.01
2022-12-14T20:29:15.248Z,66.71
2022-12-14T20:34:16.860Z,67.01
2022-12-14T20:39:19.806Z,66.07
2022-12-14T20:44:21.767Z,66.03
2022-12-14T20:49:29.370Z,66.08
2022-12-14T20:54:30.809Z,66.36
2022-12-14T20:59:33.285Z,66.16
2022-12-14T21:04:34.955Z,66.28
2022-12-14T21:09:36.411Z,65.15
2022-12-14T21:14:42.318Z,65.35
2022-12-14T21:19:43.867Z,66.38
2022-12-14T21:25:02.896Z,66.33
2022-12-14T21:30:09.063Z,67.03
2022-12-14T21:35:10.495Z,67.86
2022-12-14T21:40:32.190Z,67.58
2022-12-14T21:45:33.632Z,67.92
2022-12-14T21:50:35.255Z,68.15
2022-12-14T21:55:36.659Z,68.57
2022-12-14T22:00:38.173Z,69.07
2022-12-14T22:05:39.600Z,69.24
2022-12-14T22:10:41.116Z,70.17
2022-12-14T22:15:42.594Z,70.22
2022-12-14T22:20:43.935Z,70.24
2022-12-14T22:25:50.110Z,70.29
2022-12-14T22:30:51.428Z,70.45
2022-12-14T22:35:52.955Z,70.34
2022-12-14T22:41:01.479Z,70.51
2022-12-14T22:46:03.609Z,71.16
2022-12-14T22:51:10.046Z,70.78
2022-12-14T22:56:21.433Z,70.50
2022-12-14T23:01:23.482Z,71.55
2022-12-14T23:06:24.987Z,70.59
2022-12-14T23:11:45.109Z,70.83
2022-12-14T23:17:05.168Z,70.90
2022-12-14T23:22:25.098Z,71.37
2022-12-14T23:27:45.557Z,71.13
2022-12-14T23:33:05.940Z,71.23
2022-12-14T23:38:26.723Z,71.80
2022-12-14T23:43:46.536Z,71.35
2022-12-14T23:49:10.544Z,71.69
2022-12-14T23:54:35.338Z,72.06
2022-12-14T23:59:55.256Z,72.38
